Thunder radar more information blitzortung!


Radar de pluja more information rain snow radar


Visita la nostra xarxa de llocs de meteo:

Template documentation
and downloads

And another site



No particular awareness of the weather is required.    There are no Weather-warnings

Pagina Historial Weather Underground text

Diari Resum Desembre 25, 2017 Unitats:  Imperial    Mètric   Tant
« Previous Dia
SegĂźent Dia »
Diari Setmana Mensual Anual Personalitzada
  Maxima: Minima: Media:
Temperatura: TemperatureC °F 2.8 °F 7.5 °F
Punt de rosada: DewpointC °F -0.8 °F 2.7 °F
Humitat: Humidity % 66 % 72 %
Wind Speed: WindSpeedKMH mph 0.0 mph 2.1 mph
RĂ fegues de vent: WindSpeedGustKMH mph - -
Vent:- - SE
Pression baro: PressurehPa in 1018.8 in -
Precipitacions: 0.0 in    
Historical Graphs
 
 
Dades de taula per Desembre 25, 2017
Temps Temperatura Punt de rosada Pression baro Vent Wind Speed RĂ fegues de vent Humitat Rainfall Rate (Hourly)
TemperatureC °F DewpointC °F PressurehPa in Calm     Humidity % HourlyPrecipMM in
00:04 4.9 °F 0.3 °F 1028.0 in NE 1.9 mph 2.3 mph 72 % 0.0 in
00:05 3.3 °F -0.3 °F 1026.0 in Calm     77 % 0.0 in
00:06 4.9 °F 0.3 °F 1028.0 in NE 1.9 mph   72 % 0.0 in
00:07 4.8 °F 0.2 °F 1028.0 in Calm     72 % 0.0 in
00:11 4.8 °F 0.2 °F 1028.0 in Calm     72 % 0.0 in
00:14 4.7 °F 0.1 °F 1028.0 in Calm     72 % 0.0 in
00:15 3.4 °F -0.3 °F 1026.0 in Calm     77 % 0.0 in
00:17 4.7 °F 0.1 °F 1028.0 in Calm     72 % 0.0 in
00:20 4.6 °F 0.0 °F 1028.0 in Calm     72 % 0.0 in
00:25 4.7 °F 0.3 °F 1028.0 in Calm     73 % 0.0 in
00:30 4.7 °F 0.3 °F 1028.0 in Calm     73 % 0.0 in
00:45 3.7 °F 0.1 °F 1026.0 in Calm   1.6 mph 77 % 0.0 in
01:05 3.9 °F 0.2 °F 1026.0 in NE 1.6 mph 1.6 mph 77 % 0.0 in
01:15 3.8 °F 0.1 °F 1026.0 in Calm   3.2 mph 77 % 0.0 in
01:35 3.3 °F -0.6 °F 1026.0 in Calm   3.2 mph 76 % 0.0 in
01:55 3.1 °F -0.7 °F 1026.0 in Calm   1.6 mph 76 % 0.0 in
02:05 3.0 °F -0.7 °F 1026.0 in Calm     77 % 0.0 in
02:15 2.9 °F -0.7 °F 1026.0 in South 1.6 mph 1.6 mph 77 % 0.0 in
02:25 2.8 °F -0.8 °F 1026.0 in ENE 1.6 mph 3.2 mph 77 % 0.0 in
02:35 2.8 °F -0.8 °F 1026.0 in NE 1.6 mph 1.6 mph 77 % 0.0 in
02:45 2.9 °F -0.7 °F 1026.0 in Calm   1.6 mph 77 % 0.0 in
02:55 3.0 °F -0.7 °F 1026.0 in ENE 1.6 mph 1.6 mph 77 % 0.0 in
03:05 3.1 °F -0.6 °F 1026.0 in Calm   3.2 mph 77 % 0.0 in
03:15 3.1 °F -0.6 °F 1026.0 in Calm     77 % 0.0 in
03:25 3.1 °F -0.6 °F 1026.0 in SW 1.6 mph 3.2 mph 77 % 0.0 in
03:35 3.2 °F -0.4 °F 1026.0 in SW 1.6 mph 3.2 mph 77 % 0.0 in
03:45 3.2 °F -0.4 °F 1026.0 in SW 1.6 mph 3.2 mph 77 % 0.0 in
03:55 3.4 °F -0.3 °F 1026.0 in SW 1.6 mph 4.8 mph 77 % 0.0 in
04:05 3.6 °F -0.1 °F 1026.0 in Calm   3.2 mph 77 % 0.0 in
04:15 3.8 °F 0.3 °F 1026.0 in Calm   3.2 mph 78 % 0.0 in
04:20 3.8 °F 0.3 °F 1026.0 in Calm   1.6 mph 78 % 0.0 in
04:30 4.0 °F 0.5 °F 1026.0 in ENE 1.6 mph 3.2 mph 78 % 0.0 in
04:40 4.2 °F 0.5 °F 1027.0 in Calm   4.8 mph 77 % 0.0 in
10:47 4.3 °F 0.6 °F 1027.0 in East 3.7 mph 3.7 mph 77 % 0.0 in
10:49 4.2 °F 0.5 °F 1027.0 in SW 3.5 mph   77 % 0.0 in
10:54 4.3 °F 0.6 °F 1026.0 in ENE 1.9 mph 1.9 mph 77 % 0.0 in
10:56 4.3 °F 0.6 °F 1026.0 in NE 3.7 mph 3.7 mph 77 % 0.0 in
11:00 4.4 °F 0.7 °F 1026.0 in SSE 1.9 mph 1.9 mph 77 % 0.0 in
11:01 4.5 °F 0.8 °F 1026.0 in ESE 2.6 mph 2.6 mph 77 % 0.0 in
11:03 4.5 °F 0.8 °F 1026.0 in SSE 3.7 mph   77 % 0.0 in
11:08 4.6 °F 0.9 °F 1026.0 in SW 3.9 mph 3.9 mph 77 % 0.0 in
11:09 4.6 °F 0.9 °F 1027.0 in SW 3.7 mph 3.7 mph 77 % 0.0 in
11:14 4.7 °F 0.8 °F 1027.0 in SW 2.6 mph 2.6 mph 76 % 0.0 in
11:19 4.8 °F 1.1 °F 1027.0 in SW 3.2 mph   77 % 0.0 in
11:21 4.8 °F 1.1 °F 1027.0 in SW 3.7 mph 3.7 mph 77 % 0.0 in
11:26 4.8 °F 1.1 °F 1026.0 in SW 1.9 mph   77 % 0.0 in
11:27 4.8 °F 1.1 °F 1026.0 in SW 3.7 mph 3.7 mph 77 % 0.0 in
11:29 4.8 °F 1.1 °F 1026.0 in SW 1.9 mph   77 % 0.0 in
11:34 4.9 °F 1.0 °F 1026.0 in North 3.7 mph   76 % 0.0 in
11:35 4.9 °F 1.0 °F 1026.0 in NE 3.2 mph   76 % 0.0 in
11:40 5.0 °F 1.1 °F 1026.0 in WNW 3.7 mph 3.7 mph 76 % 0.0 in
11:41 5.1 °F 1.2 °F 1026.0 in WNW 1.9 mph 1.9 mph 76 % 0.0 in
11:45 5.2 °F 1.5 °F 1026.0 in NNE 4.7 mph 4.7 mph 77 % 0.0 in
11:50 5.3 °F 1.4 °F 1026.0 in ENE 3.7 mph   76 % 0.0 in
11:55 5.4 °F 1.5 °F 1024.9 in NNW 3.7 mph 3.7 mph 76 % 0.0 in
11:56 5.4 °F 1.5 °F 1024.9 in NNW 3.7 mph 3.7 mph 76 % 0.0 in
12:01 5.5 °F 1.6 °F 1024.9 in NNE 5.6 mph 5.6 mph 76 % 0.0 in
12:06 5.6 °F 1.7 °F 1024.9 in NE 5.6 mph 5.6 mph 76 % 0.0 in
12:07 5.7 °F 1.8 °F 1024.9 in NE 5.0 mph 5.0 mph 76 % 0.0 in
12:12 5.7 °F 1.8 °F 1026.0 in ENE 3.7 mph 3.7 mph 76 % 0.0 in
12:13 5.8 °F 1.9 °F 1026.0 in NE 3.7 mph 3.7 mph 76 % 0.0 in
12:18 6.0 °F 2.1 °F 1026.0 in NNE 3.7 mph 3.7 mph 76 % 0.0 in
12:19 6.0 °F 2.1 °F 1026.0 in NNE 3.7 mph 3.7 mph 76 % 0.0 in
12:21 6.0 °F 2.1 °F 1026.0 in NNE 2.3 mph   76 % 0.0 in
12:24 6.2 °F 2.1 °F 1024.9 in West 3.7 mph   75 % 0.0 in
12:29 6.5 °F 2.4 °F 1024.9 in NE 5.6 mph 5.6 mph 75 % 0.0 in
12:30 6.5 °F 2.4 °F 1024.9 in NNE 3.7 mph 3.7 mph 75 % 0.0 in
12:35 6.7 °F 2.6 °F 1024.9 in NNE 3.7 mph 3.7 mph 75 % 0.0 in
12:36 6.8 °F 2.7 °F 1024.9 in WNW 2.3 mph 2.3 mph 75 % 0.0 in
12:38 6.9 °F 2.8 °F 1024.9 in Calm     75 % 0.0 in
12:43 7.3 °F 3.2 °F 1024.9 in NNE 3.7 mph   75 % 0.0 in
12:45 7.4 °F 3.3 °F 1024.9 in NNE 3.7 mph 3.7 mph 75 % 0.0 in
12:50 7.4 °F 3.1 °F 1024.9 in East 5.6 mph 5.6 mph 74 % 0.0 in
12:55 7.5 °F 2.9 °F 1023.9 in ESE 3.7 mph   73 % 0.0 in
13:00 7.9 °F 3.3 °F 1023.9 in SW 1.9 mph 1.9 mph 73 % 0.0 in
13:01 7.9 °F 3.3 °F 1023.9 in SW 1.9 mph 1.9 mph 73 % 0.0 in
13:02 8.0 °F 3.4 °F 1023.9 in SW 2.3 mph   73 % 0.0 in
13:06 8.1 °F 3.6 °F 1023.9 in WSW 2.6 mph   73 % 0.0 in
13:11 8.3 °F 3.7 °F 1023.9 in ESE 2.6 mph   73 % 0.0 in
13:16 8.4 °F 3.7 °F 1023.9 in ESE 3.7 mph 3.7 mph 72 % 0.0 in
13:17 8.5 °F 3.7 °F 1023.9 in SSE 1.9 mph 1.9 mph 72 % 0.0 in
13:20 8.6 °F 3.8 °F 1023.9 in ENE 1.9 mph 1.9 mph 72 % 0.0 in
13:22 8.7 °F 3.9 °F 1023.9 in SW 1.9 mph   72 % 0.0 in
13:27 9.0 °F 4.2 °F 1023.9 in SW 3.7 mph 3.7 mph 72 % 0.0 in
13:29 9.0 °F 4.2 °F 1023.9 in SW 3.7 mph 3.7 mph 72 % 0.0 in
13:34 9.2 °F 4.2 °F 1023.9 in WSW 1.9 mph   71 % 0.0 in
13:39 9.2 °F 4.2 °F 1022.9 in East 1.9 mph 1.9 mph 71 % 0.0 in
13:42 9.3 °F 4.3 °F 1022.9 in ESE 3.2 mph   71 % 0.0 in
13:45 9.4 °F 4.4 °F 1022.9 in ESE 2.3 mph   71 % 0.0 in
13:50 9.3 °F 4.1 °F 1022.9 in NE 1.9 mph 2.3 mph 70 % 0.0 in
13:55 9.4 °F 4.2 °F 1022.9 in NNE 3.7 mph 3.7 mph 70 % 0.0 in
13:56 9.4 °F 4.2 °F 1022.9 in NNE 3.7 mph 3.7 mph 70 % 0.0 in
14:01 9.5 °F 4.3 °F 1022.9 in NNE 1.9 mph 1.9 mph 70 % 0.0 in
14:07 9.7 °F 4.5 °F 1022.9 in NNE 1.9 mph 3.2 mph 70 % 0.0 in
14:12 9.9 °F 4.7 °F 1022.9 in ENE 3.7 mph 3.7 mph 70 % 0.0 in
14:17 10.0 °F 4.6 °F 1022.9 in ENE 3.7 mph 3.7 mph 69 % 0.0 in
14:18 10.0 °F 4.6 °F 1022.9 in ENE 3.7 mph 3.7 mph 69 % 0.0 in
14:23 10.0 °F 4.6 °F 1022.9 in ENE 3.2 mph   69 % 0.0 in
14:28 10.2 °F 4.6 °F 1021.9 in North 1.9 mph   68 % 0.0 in
14:31 10.2 °F 4.6 °F 1021.9 in NE 2.6 mph 2.6 mph 68 % 0.0 in
14:35 10.2 °F 4.6 °F 1021.9 in ENE 3.7 mph 3.7 mph 68 % 0.0 in
14:38 10.2 °F 4.3 °F 1021.9 in NNE 3.9 mph 3.9 mph 67 % 0.0 in
14:40 10.2 °F 4.3 °F 1021.9 in ENE 3.7 mph 3.7 mph 67 % 0.0 in
14:45 10.2 °F 4.3 °F 1021.9 in East 3.7 mph 3.7 mph 67 % 0.0 in
14:46 10.2 °F 4.3 °F 1021.9 in NE 5.6 mph 5.6 mph 67 % 0.0 in
14:51 10.2 °F 4.3 °F 1021.9 in NNE 5.6 mph 5.6 mph 67 % 0.0 in
14:56 10.2 °F 4.3 °F 1021.9 in NE 3.7 mph 3.7 mph 67 % 0.0 in
14:57 10.2 °F 4.3 °F 1021.9 in ENE 3.7 mph 3.7 mph 67 % 0.0 in
14:58 10.2 °F 4.3 °F 1021.9 in East 2.3 mph 2.3 mph 67 % 0.0 in
15:06 10.2 °F 4.3 °F 1021.9 in NE 3.7 mph 3.7 mph 67 % 0.0 in
15:09 10.2 °F 4.3 °F 1021.9 in ENE 3.7 mph 3.7 mph 67 % 0.0 in
15:12 10.2 °F 4.3 °F 1021.9 in ENE 3.7 mph 3.7 mph 67 % 0.0 in
15:15 10.2 °F 4.3 °F 1021.9 in NE 3.7 mph 3.7 mph 67 % 0.0 in
15:17 10.3 °F 4.7 °F 1021.9 in NE 2.6 mph 2.6 mph 68 % 0.0 in
15:21 10.3 °F 4.4 °F 1021.9 in NE 3.7 mph 3.7 mph 67 % 0.0 in
15:23 10.4 °F 4.7 °F 1021.9 in NE 3.7 mph   68 % 0.0 in
15:28 10.4 °F 4.7 °F 1021.9 in Calm     68 % 0.0 in
15:29 10.5 °F 4.6 °F 1021.9 in NE 1.9 mph 1.9 mph 67 % 0.0 in
15:34 10.5 °F 4.6 °F 1021.9 in NE 2.3 mph 2.3 mph 67 % 0.0 in
15:35 10.5 °F 4.6 °F 1021.9 in NE 2.3 mph 2.3 mph 67 % 0.0 in
15:40 10.5 °F 4.6 °F 1021.9 in ENE 3.7 mph 3.7 mph 67 % 0.0 in
15:45 10.6 °F 4.7 °F 1021.9 in ENE 2.3 mph 2.3 mph 67 % 0.0 in
15:47 10.6 °F 4.7 °F 1021.9 in ENE 3.7 mph 3.7 mph 67 % 0.0 in
15:51 10.6 °F 4.7 °F 1021.9 in ENE 3.2 mph   67 % 0.0 in
15:56 10.6 °F 4.7 °F 1021.9 in ENE 2.6 mph 2.6 mph 67 % 0.0 in
15:58 10.5 °F 4.6 °F 1021.9 in ENE 1.9 mph 2.3 mph 67 % 0.0 in
16:03 10.4 °F 4.3 °F 1021.9 in East 1.9 mph 1.9 mph 66 % 0.0 in
16:08 10.4 °F 4.3 °F 1021.9 in East 2.6 mph 2.6 mph 66 % 0.0 in
16:09 10.4 °F 4.3 °F 1021.9 in East 2.3 mph 2.3 mph 66 % 0.0 in
16:14 10.4 °F 4.3 °F 1021.9 in NE 3.7 mph 3.7 mph 66 % 0.0 in
16:15 10.4 °F 4.3 °F 1021.9 in NE 1.9 mph 1.9 mph 66 % 0.0 in
16:20 10.4 °F 4.3 °F 1021.9 in Calm     66 % 0.0 in
16:24 10.4 °F 4.3 °F 1020.9 in Calm     66 % 0.0 in
16:27 10.4 °F 4.3 °F 1020.9 in Calm     66 % 0.0 in
16:32 10.4 °F 4.3 °F 1020.9 in Calm     66 % 0.0 in
16:37 10.4 °F 4.3 °F 1020.9 in Calm     66 % 0.0 in
16:38 10.4 °F 4.3 °F 1020.9 in Calm     66 % 0.0 in
16:43 10.5 °F 4.4 °F 1020.9 in Calm     66 % 0.0 in
16:48 10.5 °F 4.4 °F 1020.9 in NE 3.2 mph 3.2 mph 66 % 0.0 in
16:49 10.5 °F 4.4 °F 1020.9 in NE 2.6 mph 2.6 mph 66 % 0.0 in
16:50 10.4 °F 4.3 °F 1020.9 in NE 3.7 mph 3.7 mph 66 % 0.0 in
16:55 10.5 °F 4.6 °F 1020.9 in NE 1.9 mph   67 % 0.0 in
17:00 10.5 °F 4.6 °F 1020.9 in Calm     67 % 0.0 in
17:02 10.6 °F 4.7 °F 1020.9 in Calm   1.9 mph 67 % 0.0 in
17:07 10.5 °F 4.4 °F 1020.9 in Calm     66 % 0.0 in
17:08 10.5 °F 4.4 °F 1020.9 in Calm     66 % 0.0 in
17:13 10.7 °F 4.8 °F 1020.9 in Calm     67 % 0.0 in
17:16 10.6 °F 4.5 °F 1020.9 in NE 1.9 mph 1.9 mph 66 % 0.0 in
17:17 10.5 °F 4.4 °F 1020.9 in NE 1.9 mph 1.9 mph 66 % 0.0 in
17:22 10.4 °F 4.6 °F 1020.9 in Calm     67 % 0.0 in
17:24 10.3 °F 4.4 °F 1020.9 in NE 1.9 mph   67 % 0.0 in
17:29 10.0 °F 3.9 °F 1020.9 in East 7.4 mph 7.4 mph 66 % 0.0 in
17:33 9.8 °F 3.7 °F 1020.9 in East 5.6 mph 5.6 mph 66 % 0.0 in
17:34 9.8 °F 3.7 °F 1020.9 in ESE 7.4 mph 7.4 mph 66 % 0.0 in
17:39 9.5 °F 3.4 °F 1019.9 in ENE 3.7 mph 3.7 mph 66 % 0.0 in
17:40 9.4 °F 3.4 °F 1019.9 in NE 3.5 mph 3.5 mph 66 % 0.0 in
17:45 9.3 °F 3.3 °F 1019.9 in NE 3.7 mph 3.7 mph 66 % 0.0 in
17:46 9.3 °F 3.3 °F 1019.9 in NE 3.7 mph 3.7 mph 66 % 0.0 in
17:49 9.2 °F 3.4 °F 1019.9 in NE 1.9 mph   67 % 0.0 in
17:51 9.2 °F 3.4 °F 1019.9 in Calm     67 % 0.0 in
17:56 9.0 °F 3.2 °F 1019.9 in Calm     67 % 0.0 in
18:01 8.9 °F 3.1 °F 1019.9 in Calm     67 % 0.0 in
18:03 8.9 °F 3.1 °F 1019.9 in NE 2.3 mph   67 % 0.0 in
18:04 8.8 °F 3.0 °F 1019.9 in NE 2.3 mph 2.3 mph 67 % 0.0 in
18:08 8.7 °F 3.1 °F 1019.9 in NE 1.9 mph   68 % 0.0 in
18:13 8.5 °F 2.9 °F 1019.9 in Calm     68 % 0.0 in
18:18 8.5 °F 2.9 °F 1019.9 in NW 1.9 mph   68 % 0.0 in
18:20 8.5 °F 2.9 °F 1019.9 in Calm     68 % 0.0 in
18:24 8.1 °F 2.6 °F 1019.9 in NW 3.7 mph 3.7 mph 68 % 0.0 in
18:29 7.9 °F 2.6 °F 1019.9 in WSW 3.9 mph 3.9 mph 69 % 0.0 in
18:31 7.9 °F 2.6 °F 1019.9 in WSW 3.7 mph 3.7 mph 69 % 0.0 in
18:32 7.9 °F 2.6 °F 1019.9 in WSW 3.7 mph 3.7 mph 69 % 0.0 in
18:36 7.9 °F 2.6 °F 1019.9 in WSW 3.7 mph 3.7 mph 69 % 0.0 in
18:40 7.9 °F 2.8 °F 1019.9 in SW 3.7 mph 3.7 mph 70 % 0.0 in
18:44 7.8 °F 2.7 °F 1019.9 in SW 3.7 mph 3.7 mph 70 % 0.0 in
18:45 7.7 °F 2.6 °F 1019.9 in SW 3.9 mph 3.9 mph 70 % 0.0 in
18:47 7.7 °F 2.6 °F 1019.9 in SW 2.6 mph 2.6 mph 70 % 0.0 in
18:51 7.7 °F 2.8 °F 1019.9 in WSW 3.7 mph 3.7 mph 71 % 0.0 in
18:56 7.6 °F 2.7 °F 1019.9 in Calm     71 % 0.0 in
19:01 7.6 °F 2.9 °F 1019.9 in Calm     72 % 0.0 in
19:02 7.6 °F 2.9 °F 1019.9 in Calm     72 % 0.0 in
19:07 7.7 °F 2.9 °F 1019.9 in Calm     72 % 0.0 in
19:09 7.7 °F 2.9 °F 1019.9 in Calm     72 % 0.0 in
19:11 7.7 °F 2.9 °F 1019.9 in Calm     72 % 0.0 in
19:16 7.7 °F 2.9 °F 1019.9 in WSW 1.9 mph 1.9 mph 72 % 0.0 in
19:17 7.7 °F 2.9 °F 1019.9 in WSW 1.9 mph   72 % 0.0 in
19:22 7.7 °F 2.9 °F 1019.9 in Calm     72 % 0.0 in
19:23 7.7 °F 2.9 °F 1019.9 in Calm     72 % 0.0 in
19:25 7.7 °F 2.9 °F 1019.9 in Calm     72 % 0.0 in
19:30 7.7 °F 2.9 °F 1019.9 in Calm     72 % 0.0 in
19:33 7.7 °F 2.9 °F 1019.9 in WSW 1.9 mph   72 % 0.0 in
19:36 7.7 °F 2.9 °F 1019.9 in WSW 1.9 mph   72 % 0.0 in
19:41 7.8 °F 3.1 °F 1019.9 in Calm     72 % 0.0 in
19:44 7.8 °F 3.3 °F 1019.9 in Calm     73 % 0.0 in
19:45 7.8 °F 3.3 °F 1019.9 in Calm     73 % 0.0 in
19:50 7.8 °F 3.3 °F 1019.9 in Calm     73 % 0.0 in
19:55 8.0 °F 3.4 °F 1019.9 in Calm     73 % 0.0 in
19:56 8.0 °F 3.4 °F 1019.9 in Calm     73 % 0.0 in
20:01 7.9 °F 3.3 °F 1019.9 in Calm     73 % 0.0 in
20:03 7.9 °F 3.3 °F 1019.9 in NNE 2.6 mph   73 % 0.0 in
20:08 7.7 °F 3.2 °F 1019.9 in NE 3.7 mph 3.7 mph 73 % 0.0 in
20:10 7.6 °F 3.1 °F 1019.9 in NE 3.7 mph 3.7 mph 73 % 0.0 in
20:13 7.5 °F 2.9 °F 1019.9 in Calm     73 % 0.0 in
20:16 7.5 °F 2.9 °F 1019.9 in Calm     73 % 0.0 in
20:21 7.5 °F 2.9 °F 1019.9 in Calm     73 % 0.0 in
20:24 7.6 °F 3.1 °F 1019.9 in WNW 3.5 mph 3.5 mph 73 % 0.0 in
20:29 7.6 °F 3.1 °F 1019.9 in Calm     73 % 0.0 in
20:30 7.6 °F 3.1 °F 1019.9 in Calm     73 % 0.0 in
20:31 7.6 °F 3.1 °F 1019.9 in Calm     73 % 0.0 in
20:36 7.6 °F 3.1 °F 1019.9 in Calm     73 % 0.0 in
20:40 7.4 °F 2.9 °F 1019.9 in WNW 3.7 mph 3.7 mph 73 % 0.0 in
20:41 7.4 °F 2.9 °F 1019.9 in WNW 3.7 mph   73 % 0.0 in
20:46 7.4 °F 2.9 °F 1019.9 in NE 2.3 mph 2.3 mph 73 % 0.0 in
20:49 7.3 °F 2.8 °F 1019.9 in NE 3.7 mph 3.7 mph 73 % 0.0 in
20:54 7.2 °F 2.7 °F 1019.9 in Calm     73 % 0.0 in
20:57 7.2 °F 2.7 °F 1019.9 in Calm     73 % 0.0 in
20:59 7.2 °F 2.7 °F 1019.9 in SW 3.9 mph 3.9 mph 73 % 0.0 in
21:04 7.2 °F 2.7 °F 1019.9 in WNW 1.9 mph   73 % 0.0 in
21:05 7.1 °F 2.6 °F 1019.9 in Calm     73 % 0.0 in
21:06 7.2 °F 2.7 °F 1019.9 in NNE 1.9 mph 1.9 mph 73 % 0.0 in
21:10 7.2 °F 2.9 °F 1019.9 in SW 3.2 mph 3.2 mph 74 % 0.0 in
21:14 7.2 °F 2.7 °F 1019.9 in WSW 3.5 mph 3.5 mph 73 % 0.0 in
21:17 7.1 °F 2.6 °F 1019.9 in SW 3.7 mph 3.7 mph 73 % 0.0 in
21:21 7.1 °F 2.8 °F 1019.9 in Calm     74 % 0.0 in
21:22 7.1 °F 2.8 °F 1019.9 in Calm     74 % 0.0 in
21:24 7.1 °F 2.8 °F 1019.9 in NNW 2.6 mph   74 % 0.0 in
21:28 7.2 °F 2.9 °F 1019.9 in WSW 3.7 mph 3.7 mph 74 % 0.0 in
21:29 7.2 °F 2.9 °F 1019.9 in WSW 3.7 mph 3.7 mph 74 % 0.0 in
21:34 7.3 °F 2.8 °F 1019.9 in NW 3.7 mph 3.7 mph 73 % 0.0 in
21:35 7.3 °F 2.8 °F 1019.9 in NW 3.9 mph 3.9 mph 73 % 0.0 in
21:39 7.5 °F 3.2 °F 1020.9 in West 3.7 mph 3.7 mph 74 % 0.0 in
21:40 7.6 °F 3.3 °F 1020.9 in West 3.7 mph 3.7 mph 74 % 0.0 in
21:45 7.7 °F 3.3 °F 1020.9 in Calm     74 % 0.0 in
21:47 7.8 °F 3.4 °F 1020.9 in Calm     74 % 0.0 in
21:52 7.8 °F 3.4 °F 1020.9 in SW 1.9 mph 1.9 mph 74 % 0.0 in
21:54 7.8 °F 3.4 °F 1019.9 in Calm     74 % 0.0 in
21:56 7.8 °F 3.4 °F 1019.9 in Calm     74 % 0.0 in
21:59 7.8 °F 3.4 °F 1019.9 in NNE 2.6 mph 2.6 mph 74 % 0.0 in
22:04 7.8 °F 3.4 °F 1019.9 in NNE 1.9 mph 1.9 mph 74 % 0.0 in
22:05 7.8 °F 3.4 °F 1019.9 in NNE 1.9 mph 1.9 mph 74 % 0.0 in
22:10 7.7 °F 3.3 °F 1019.9 in Calm     74 % 0.0 in
22:15 7.8 °F 3.4 °F 1019.9 in Calm     74 % 0.0 in
22:16 7.8 °F 3.4 °F 1019.9 in Calm     74 % 0.0 in
22:21 7.7 °F 3.3 °F 1019.9 in Calm     74 % 0.0 in
22:22 7.7 °F 3.3 °F 1019.9 in Calm     74 % 0.0 in
22:27 7.7 °F 3.3 °F 1019.9 in NNE 1.9 mph   74 % 0.0 in
22:28 7.7 °F 3.3 °F 1019.9 in Calm     74 % 0.0 in
22:31 7.7 °F 3.3 °F 1019.9 in Calm     74 % 0.0 in
22:35 7.6 °F 3.3 °F 1019.9 in Calm     74 % 0.0 in
22:38 7.5 °F 3.2 °F 1019.9 in Calm     74 % 0.0 in
22:41 7.4 °F 3.1 °F 1019.9 in NNE 2.3 mph 2.3 mph 74 % 0.0 in
22:46 7.2 °F 2.9 °F 1019.9 in NNE 1.9 mph 1.9 mph 74 % 0.0 in
22:48 7.2 °F 2.9 °F 1019.9 in Calm     74 % 0.0 in
22:50 7.1 °F 2.8 °F 1019.9 in SW 3.9 mph 3.9 mph 74 % 0.0 in
22:53 7.1 °F 2.8 °F 1019.9 in SW 1.9 mph 1.9 mph 74 % 0.0 in
22:58 7.0 °F 2.7 °F 1019.9 in East 3.7 mph 3.7 mph 74 % 0.0 in
23:00 7.0 °F 2.7 °F 1019.9 in East 3.7 mph 3.7 mph 74 % 0.0 in
23:05 6.9 °F 2.6 °F 1019.9 in Calm     74 % 0.0 in
23:08 6.8 °F 2.5 °F 1019.9 in Calm     74 % 0.0 in
23:09 6.7 °F 2.4 °F 1019.9 in NW 2.6 mph   74 % 0.0 in
23:14 6.6 °F 2.3 °F 1019.9 in West 3.2 mph 3.2 mph 74 % 0.0 in
23:19 6.5 °F 2.4 °F 1019.9 in WSW 3.2 mph 3.2 mph 75 % 0.0 in
23:20 6.5 °F 2.4 °F 1019.9 in WSW 3.2 mph 3.2 mph 75 % 0.0 in
23:25 6.4 °F 2.3 °F 1019.9 in WSW 3.7 mph 3.7 mph 75 % 0.0 in
23:27 6.4 °F 2.3 °F 1019.9 in WSW 3.7 mph 3.7 mph 75 % 0.0 in
23:30 6.3 °F 2.2 °F 1019.9 in WSW 1.9 mph   75 % 0.0 in
23:32 6.2 °F 2.1 °F 1019.9 in WSW 2.6 mph 2.6 mph 75 % 0.0 in
23:37 6.1 °F 2.0 °F 1019.9 in WSW 1.9 mph 1.9 mph 75 % 0.0 in
23:43 6.1 °F 2.2 °F 1019.9 in WSW 1.9 mph 1.9 mph 76 % 0.0 in
23:44 6.1 °F 2.2 °F 1019.9 in WSW 1.9 mph 1.9 mph 76 % 0.0 in
23:49 6.0 °F 2.1 °F 1019.9 in WSW 1.9 mph 1.9 mph 76 % 0.0 in
23:50 6.1 °F 2.1 °F 1019.9 in WSW 1.6 mph 1.6 mph 76 % 0.0 in
23:55 6.1 °F 2.2 °F 1018.8 in Calm     76 % 0.0 in
Meteo Sesrovires
Elogis d' Weather Underground - 2 mb

Guio original per  Jim McMurry - jmcmurry@mwt.net Adaptat per a la plantilla per  Wim van der Kuil - Leuven-Template.eu

Trobareu la nostra informacio del temps tambe a:

Weather Underground

AWEKAS